createdAt,value
2022-11-12T00:00:50.058Z,11.69
2022-11-12T00:03:40.937Z,11.75
2022-11-12T00:06:31.758Z,11.75
2022-11-12T00:09:22.780Z,11.71
2022-11-12T00:12:13.856Z,11.74
2022-11-12T00:15:04.648Z,11.72
2022-11-12T00:17:55.406Z,11.71
2022-11-12T00:20:46.431Z,11.66
2022-11-12T00:23:37.090Z,11.66
2022-11-12T00:26:30.567Z,11.67
2022-11-12T00:29:21.369Z,11.66
2022-11-12T00:32:14.327Z,11.64
2022-11-12T00:35:06.829Z,11.65
2022-11-12T00:38:00.694Z,11.57
2022-11-12T00:40:51.563Z,11.49
2022-11-12T00:43:42.470Z,11.32
2022-11-12T00:46:33.442Z,11.25
2022-11-12T00:49:25.168Z,11.24
2022-11-12T00:52:15.727Z,11.15
2022-11-12T00:55:06.828Z,11.06
2022-11-12T00:58:00.589Z,11.08
2022-11-12T01:00:52.450Z,11.12
2022-11-12T01:03:45.963Z,11.23
2022-11-12T01:06:42.785Z,11.27
2022-11-12T01:09:34.946Z,11.28
2022-11-12T01:12:26.162Z,11.22
2022-11-12T01:15:18.787Z,11.18
2022-11-12T01:18:12.165Z,11.20
2022-11-12T01:21:05.374Z,11.16
2022-11-12T01:23:57.956Z,11.11
2022-11-12T01:26:50.284Z,11.11
2022-11-12T01:29:41.880Z,11.16
2022-11-12T01:32:35.109Z,11.18
2022-11-12T01:35:25.755Z,11.17
2022-11-12T01:38:16.864Z,11.13
2022-11-12T01:41:09.049Z,11.17
2022-11-12T01:44:18.267Z,11.21
2022-11-12T01:47:15.634Z,11.15
2022-11-12T01:50:18.243Z,11.11
2022-11-12T01:53:13.601Z,11.11
2022-11-12T01:56:06.840Z,11.09
2022-11-12T01:59:02.052Z,11.08
2022-11-12T02:01:55.290Z,10.98
2022-11-12T02:04:46.929Z,10.91
2022-11-12T02:07:40.675Z,10.83
2022-11-12T02:10:32.312Z,10.83
2022-11-12T02:13:42.048Z,10.85
2022-11-12T02:16:35.150Z,10.77
2022-11-12T02:19:26.572Z,10.73
2022-11-12T02:22:20.339Z,10.79
2022-11-12T02:25:16.577Z,10.73
2022-11-12T02:28:09.335Z,10.77
2022-11-12T02:31:03.414Z,10.81
2022-11-12T02:33:54.397Z,10.82
2022-11-12T02:36:45.476Z,10.82
2022-11-12T02:39:38.396Z,10.80
2022-11-12T02:42:29.459Z,10.79
2022-11-12T02:45:21.439Z,10.72
2022-11-12T02:48:17.972Z,10.79
2022-11-12T02:51:12.728Z,10.85
2022-11-12T02:54:03.807Z,10.86
2022-11-12T02:56:55.273Z,10.88
2022-11-12T02:59:49.447Z,10.88
2022-11-12T03:02:43.087Z,10.91
2022-11-12T03:05:36.290Z,10.92
2022-11-12T03:11:35.610Z,10.82
2022-11-12T03:14:27.214Z,10.84
2022-11-12T03:17:18.036Z,10.89
2022-11-12T03:20:12.235Z,10.92
2022-11-12T03:23:04.924Z,10.95
2022-11-12T03:25:58.468Z,10.88
2022-11-12T03:28:53.506Z,10.87
2022-11-12T03:31:44.693Z,10.80
2022-11-12T03:34:38.008Z,10.77
2022-11-12T03:37:29.020Z,10.86
2022-11-12T03:40:21.052Z,10.91
2022-11-12T03:43:11.920Z,10.86
2022-11-12T03:46:12.798Z,10.87
2022-11-12T03:49:28.727Z,10.84
2022-11-12T03:52:27.852Z,10.75
2022-11-12T03:55:22.415Z,10.72
2022-11-12T03:58:14.097Z,10.72
2022-11-12T04:01:06.195Z,10.72
2022-11-12T04:03:57.698Z,10.77
2022-11-12T04:07:13.913Z,10.76
2022-11-12T04:10:05.441Z,10.78
2022-11-12T04:13:22.425Z,10.76
2022-11-12T04:16:33.439Z,10.82
2022-11-12T04:19:41.868Z,10.85
2022-11-12T04:22:32.511Z,10.82
2022-11-12T04:25:41.016Z,10.84
2022-11-12T04:28:31.957Z,10.80
2022-11-12T04:31:22.929Z,10.85
2022-11-12T04:34:34.293Z,10.87
2022-11-12T04:37:26.706Z,10.91
2022-11-12T04:40:37.793Z,10.93
2022-11-12T04:43:47.685Z,10.85
2022-11-12T04:46:38.425Z,10.91
2022-11-12T04:49:30.041Z,10.93
2022-11-12T04:52:20.852Z,10.99
2022-11-12T04:55:13.284Z,11.04
2022-11-12T04:58:05.496Z,11.05
2022-11-12T05:00:56.660Z,11.09
2022-11-12T05:03:47.493Z,11.11
2022-11-12T05:06:54.584Z,11.17
2022-11-12T05:09:46.163Z,11.18
2022-11-12T05:12:37.153Z,11.20
2022-11-12T05:15:27.785Z,11.21
2022-11-12T05:18:18.874Z,11.25
2022-11-12T05:21:23.929Z,11.29
2022-11-12T05:24:34.100Z,11.29
2022-11-12T05:27:30.835Z,11.30
2022-11-12T05:30:22.119Z,11.35
2022-11-12T05:33:12.878Z,11.39
2022-11-12T05:36:03.537Z,11.41
2022-11-12T05:38:55.041Z,11.43
2022-11-12T05:42:11.331Z,11.47
2022-11-12T05:44:57.131Z,11.47
2022-11-12T05:47:50.770Z,11.52
2022-11-12T05:51:06.251Z,11.53
2022-11-12T05:53:52.507Z,11.52
2022-11-12T05:56:45.879Z,11.54
2022-11-12T05:59:36.883Z,11.54
2022-11-12T06:02:27.852Z,11.53
2022-11-12T06:05:18.908Z,11.54
2022-11-12T06:08:09.547Z,11.57
2022-11-12T06:11:00.132Z,11.62
2022-11-12T06:14:06.201Z,11.58
2022-11-12T06:16:57.191Z,11.56
2022-11-12T06:19:47.902Z,11.55
2022-11-12T06:22:40.825Z,11.58
2022-11-12T06:25:37.870Z,11.53
2022-11-12T06:28:28.999Z,11.53
2022-11-12T06:31:20.654Z,11.57
2022-11-12T06:34:13.068Z,11.57
2022-11-12T06:37:03.633Z,11.58
2022-11-12T06:39:54.530Z,11.57
2022-11-12T06:42:45.396Z,11.58
2022-11-12T06:45:38.150Z,11.61
2022-11-12T06:48:32.257Z,11.61
2022-11-12T06:51:23.962Z,11.60
2022-11-12T06:54:14.886Z,11.64
2022-11-12T06:57:05.801Z,11.70
2022-11-12T06:59:57.907Z,11.70
2022-11-12T07:02:48.896Z,11.73
2022-11-12T07:05:40.739Z,11.75
2022-11-12T07:08:31.792Z,11.75
2022-11-12T07:11:23.103Z,11.73
2022-11-12T07:14:14.451Z,11.75
2022-11-12T07:17:06.140Z,11.79
2022-11-12T07:20:03.262Z,11.78
2022-11-12T07:22:54.851Z,11.75
2022-11-12T07:25:45.823Z,11.78
2022-11-12T07:28:37.222Z,11.79
2022-11-12T07:31:28.004Z,11.78
2022-11-12T07:34:19.191Z,11.73
2022-11-12T07:37:10.225Z,11.75
2022-11-12T07:40:01.345Z,11.79
2022-11-12T07:42:52.067Z,11.76
2022-11-12T07:45:45.697Z,11.73
2022-11-12T07:48:40.288Z,11.71
2022-11-12T07:51:35.639Z,11.75
2022-11-12T07:54:27.335Z,11.74
2022-11-12T07:57:18.066Z,11.72
2022-11-12T08:00:12.303Z,11.72
2022-11-12T08:03:03.940Z,11.78
2022-11-12T08:05:57.360Z,11.78
2022-11-12T08:08:49.382Z,11.77
2022-11-12T08:11:42.785Z,11.75
2022-11-12T08:14:33.912Z,11.68
2022-11-12T08:17:24.815Z,11.69
2022-11-12T08:20:16.273Z,11.74
2022-11-12T08:23:07.600Z,11.71
2022-11-12T08:26:01.528Z,11.75
2022-11-12T08:28:52.525Z,11.77
2022-11-12T08:31:47.403Z,11.84
2022-11-12T08:34:43.576Z,11.91
2022-11-12T08:37:35.353Z,11.94
2022-11-12T08:40:26.292Z,11.97
2022-11-12T08:43:19.840Z,11.95
2022-11-12T08:46:10.649Z,11.92
2022-11-12T08:49:01.805Z,11.91
2022-11-12T08:51:52.401Z,11.92
2022-11-12T08:54:43.563Z,11.94
2022-11-12T08:57:39.953Z,11.98
2022-11-12T09:00:31.453Z,12.01
2022-11-12T09:03:25.134Z,12.05
2022-11-12T09:06:16.235Z,12.06
2022-11-12T09:09:07.004Z,12.07
2022-11-12T09:11:57.558Z,12.06
2022-11-12T09:14:48.905Z,12.16
2022-11-12T09:17:40.433Z,12.18
2022-11-12T09:20:33.442Z,12.14
2022-11-12T09:23:29.866Z,12.12
2022-11-12T09:26:25.997Z,12.12
2022-11-12T09:29:17.111Z,12.08
2022-11-12T09:32:08.279Z,12.11
2022-11-12T09:34:59.311Z,12.17
2022-11-12T09:37:53.136Z,12.15
2022-11-12T09:41:02.029Z,12.11
2022-11-12T09:43:55.155Z,12.15
2022-11-12T09:46:50.712Z,12.14
2022-11-12T09:49:48.081Z,12.12
2022-11-12T09:52:40.505Z,12.15
2022-11-12T09:55:37.690Z,12.19
2022-11-12T09:58:32.637Z,12.27
2022-11-12T10:01:27.505Z,12.32
2022-11-12T10:04:53.303Z,12.29
2022-11-12T10:07:56.666Z,12.24
2022-11-12T10:10:55.446Z,12.19
2022-11-12T10:13:59.088Z,12.21
2022-11-12T10:17:04.827Z,12.25
2022-11-12T10:20:06.363Z,12.35
2022-11-12T10:23:13.761Z,12.43
2022-11-12T10:26:15.179Z,12.45
2022-11-12T10:29:14.398Z,12.30
2022-11-12T10:32:05.512Z,12.28
2022-11-12T10:34:57.920Z,12.35
2022-11-12T10:37:55.634Z,12.33
2022-11-12T10:40:47.048Z,12.33
2022-11-12T10:43:38.219Z,12.42
2022-11-12T10:46:31.809Z,12.49
2022-11-12T10:49:28.917Z,12.50
2022-11-12T10:52:28.921Z,12.51
2022-11-12T10:55:22.658Z,12.58
2022-11-12T10:58:20.966Z,12.72
2022-11-12T11:01:18.448Z,12.71
2022-11-12T11:04:23.880Z,12.81
2022-11-12T11:07:24.676Z,12.89
2022-11-12T11:10:27.324Z,12.96
2022-11-12T11:13:27.718Z,12.95
2022-11-12T11:16:20.905Z,13.02
2022-11-12T11:19:12.894Z,13.07
2022-11-12T11:22:18.793Z,13.11
2022-11-12T11:25:27.766Z,13.17
2022-11-12T11:28:29.972Z,13.20
2022-11-12T11:31:33.300Z,13.24
2022-11-12T11:34:35.060Z,13.27
2022-11-12T11:37:28.969Z,13.19
2022-11-12T11:40:27.991Z,13.14
2022-11-12T11:43:36.382Z,13.05
2022-11-12T11:46:39.885Z,13.08
2022-11-12T11:49:44.956Z,13.13
2022-11-12T11:52:48.008Z,13.17
2022-11-12T11:55:54.249Z,13.19
2022-11-12T11:59:16.757Z,13.25
2022-11-12T12:02:28.234Z,13.22
2022-11-12T12:05:30.902Z,13.22
2022-11-12T12:08:30.938Z,13.17
2022-11-12T12:11:28.921Z,13.15
2022-11-12T12:14:35.304Z,13.21
2022-11-12T12:17:44.524Z,13.21
2022-11-12T12:20:43.228Z,13.30
2022-11-12T12:23:41.210Z,13.34
2022-11-12T12:26:36.953Z,13.31
2022-11-12T12:29:34.131Z,13.28
2022-11-12T12:32:30.936Z,13.35
2022-11-12T12:35:29.072Z,13.45
2022-11-12T12:38:27.159Z,13.53
2022-11-12T12:41:28.007Z,13.63
2022-11-12T12:44:19.376Z,13.59
2022-11-12T12:47:14.431Z,13.65
2022-11-12T12:50:09.393Z,13.70
2022-11-12T12:53:05.893Z,13.65
2022-11-12T12:55:58.759Z,13.62
2022-11-12T12:58:53.398Z,13.68
2022-11-12T13:01:46.577Z,13.75
2022-11-12T13:04:55.285Z,13.73
2022-11-12T13:07:49.305Z,13.75
2022-11-12T13:10:59.691Z,13.79
2022-11-12T13:13:50.558Z,13.76
2022-11-12T13:17:02.317Z,13.71
2022-11-12T13:20:31.643Z,13.62
2022-11-12T13:24:07.717Z,13.54
2022-11-12T13:27:00.476Z,13.49
2022-11-12T13:29:51.386Z,13.51
2022-11-12T13:32:56.182Z,13.55
2022-11-12T13:35:47.762Z,13.60
2022-11-12T13:38:40.086Z,13.61
2022-11-12T13:42:27.952Z,13.53
2022-11-12T13:45:20.581Z,13.48
2022-11-12T13:55:04.307Z,13.54
2022-11-12T13:58:03.501Z,13.37
2022-11-12T14:00:56.837Z,13.42
2022-11-12T14:03:59.923Z,13.47
2022-11-12T14:07:34.919Z,13.48
2022-11-12T14:10:34.397Z,13.44
2022-11-12T14:13:50.687Z,13.50
2022-11-12T14:17:00.950Z,13.44
2022-11-12T14:20:33.830Z,13.42
2022-11-12T14:23:32.864Z,13.40
2022-11-12T14:26:48.345Z,13.40
2022-11-12T14:29:39.916Z,13.47
2022-11-12T14:32:48.297Z,13.56
2022-11-12T14:35:44.637Z,13.57
2022-11-12T14:39:03.639Z,13.60
2022-11-12T14:44:11.056Z,13.56
2022-11-12T14:47:03.550Z,13.49
2022-11-12T14:49:54.561Z,13.41
2022-11-12T14:52:54.068Z,13.48
2022-11-12T14:55:52.200Z,13.46
2022-11-12T14:58:43.504Z,13.49
2022-11-12T15:04:55.877Z,13.46
2022-11-12T15:07:59.603Z,13.54
2022-11-12T15:12:06.155Z,13.59
2022-11-12T15:31:34.238Z,13.50
2022-11-12T15:42:38.070Z,13.27
2022-11-12T15:45:35.975Z,13.32
2022-11-12T15:48:27.137Z,13.37
2022-11-12T15:51:19.797Z,13.42
2022-11-12T15:54:10.662Z,13.45
2022-11-12T15:57:01.705Z,13.48
2022-11-12T16:00:06.559Z,13.53
2022-11-12T16:03:03.404Z,13.60
2022-11-12T16:05:54.504Z,13.58
2022-11-12T16:08:47.309Z,13.59
2022-11-12T16:11:38.620Z,13.64
2022-11-12T16:14:30.465Z,13.58
2022-11-12T16:17:28.503Z,13.61
2022-11-12T16:20:25.366Z,13.61
2022-11-12T16:23:15.984Z,13.62
2022-11-12T16:26:10.190Z,13.63
2022-11-12T16:29:01.132Z,13.64
2022-11-12T16:31:51.843Z,13.63
2022-11-12T16:34:42.714Z,13.60
2022-11-12T16:37:34.673Z,13.62
2022-11-12T16:40:27.524Z,13.63
2022-11-12T16:43:22.154Z,13.61
2022-11-12T16:46:22.488Z,13.54
2022-11-12T16:49:16.455Z,13.53
2022-11-12T16:52:07.499Z,13.59
2022-11-12T16:55:04.067Z,13.67
2022-11-12T16:57:55.857Z,13.61
2022-11-12T17:00:51.100Z,13.61
2022-11-12T17:03:41.895Z,13.55
2022-11-12T17:06:41.148Z,13.56
2022-11-12T17:09:32.114Z,13.51
2022-11-12T17:12:22.951Z,13.52
2022-11-12T17:15:13.976Z,13.52
2022-11-12T17:18:05.133Z,13.52
2022-11-12T17:20:56.124Z,13.55
2022-11-12T17:24:28.881Z,13.52
2022-11-12T17:27:23.359Z,13.49
2022-11-12T17:30:15.697Z,13.53
2022-11-12T17:33:06.931Z,13.56
2022-11-12T17:36:01.402Z,13.54
2022-11-12T17:38:56.740Z,13.55
2022-11-12T17:41:47.900Z,13.58
2022-11-12T17:44:38.675Z,13.57
2022-11-12T17:47:30.449Z,13.54
2022-11-12T17:50:21.475Z,13.56
2022-11-12T17:53:12.650Z,13.54
2022-11-12T17:56:10.058Z,13.54
2022-11-12T17:59:01.440Z,13.55
2022-11-12T18:01:52.415Z,13.55
2022-11-12T18:07:51.882Z,13.48
2022-11-12T18:10:45.691Z,13.44
2022-11-12T18:13:36.922Z,13.45
2022-11-12T18:16:29.650Z,13.47
2022-11-12T18:19:35.713Z,13.49
2022-11-12T18:22:43.583Z,13.43
2022-11-12T18:25:41.924Z,13.36
2022-11-12T18:28:33.777Z,13.33
2022-11-12T18:31:26.253Z,13.32
2022-11-12T18:34:17.738Z,13.30
2022-11-12T18:37:19.500Z,13.28
2022-11-12T18:40:13.770Z,13.25
2022-11-12T18:43:04.786Z,13.24
2022-11-12T18:45:59.240Z,13.27
2022-11-12T18:48:51.099Z,13.29
2022-11-12T18:51:41.829Z,13.29
2022-11-12T18:54:32.989Z,13.30
2022-11-12T18:57:36.621Z,13.26
2022-11-12T19:00:39.767Z,13.23
2022-11-12T19:03:30.642Z,13.22
2022-11-12T19:06:22.319Z,13.21
2022-11-12T19:09:14.872Z,13.20
2022-11-12T19:12:06.561Z,13.20
2022-11-12T19:14:57.512Z,13.20
2022-11-12T19:17:48.832Z,13.19
2022-11-12T19:20:39.696Z,13.19
2022-11-12T19:23:31.279Z,13.13
2022-11-12T19:26:23.389Z,13.06
2022-11-12T19:29:14.331Z,13.00
2022-11-12T19:32:05.400Z,13.03
2022-11-12T19:34:56.421Z,13.00
2022-11-12T19:37:49.054Z,12.92
2022-11-12T19:40:40.081Z,12.86
2022-11-12T19:43:30.815Z,12.84
2022-11-12T19:46:22.189Z,12.84
2022-11-12T19:49:29.121Z,12.89
2022-11-12T19:52:20.005Z,12.76
2022-11-12T19:55:11.178Z,12.72
2022-11-12T19:58:02.271Z,12.79
2022-11-12T20:00:56.309Z,12.77
2022-11-12T20:03:48.381Z,12.76
2022-11-12T20:06:40.748Z,12.74
2022-11-12T20:09:32.108Z,12.75
2022-11-12T20:12:46.665Z,12.70
2022-11-12T20:16:25.636Z,12.57
2022-11-12T20:19:43.343Z,12.51
2022-11-12T20:23:21.522Z,12.44
2022-11-12T20:26:16.363Z,12.21
2022-11-12T20:33:42.451Z,12.33
2022-11-12T20:36:33.422Z,12.31
2022-11-12T20:39:24.425Z,12.37
2022-11-12T20:42:52.004Z,12.50
2022-11-12T20:46:37.557Z,12.59
2022-11-12T20:49:44.831Z,12.50
2022-11-12T20:53:06.073Z,12.53
2022-11-12T20:55:57.256Z,12.60
2022-11-12T20:58:48.464Z,12.67
2022-11-12T21:01:40.653Z,12.72
2022-11-12T21:04:50.467Z,12.73
2022-11-12T21:07:48.038Z,12.71
2022-11-12T21:10:39.650Z,12.76
2022-11-12T21:13:30.837Z,12.80
2022-11-12T21:16:21.656Z,12.75
2022-11-12T21:19:12.658Z,12.75
2022-11-12T21:22:03.711Z,12.81
2022-11-12T21:24:54.948Z,12.86
2022-11-12T21:27:46.297Z,12.81
2022-11-12T21:30:38.173Z,12.82
2022-11-12T21:33:29.413Z,12.83
2022-11-12T21:39:32.475Z,12.74
2022-11-12T21:42:27.256Z,12.68
2022-11-12T21:45:18.767Z,12.74
2022-11-12T21:48:09.770Z,12.79
2022-11-12T21:51:06.449Z,12.82
2022-11-12T21:53:59.243Z,12.88
2022-11-12T21:56:49.850Z,12.87
2022-11-12T21:59:43.828Z,12.81
2022-11-12T22:02:34.596Z,12.82
2022-11-12T22:05:25.845Z,12.88
2022-11-12T22:08:16.838Z,12.94
2022-11-12T22:11:10.225Z,12.93
2022-11-12T22:14:01.049Z,12.91
2022-11-12T22:16:53.276Z,12.94
2022-11-12T22:19:44.011Z,12.89
2022-11-12T22:22:36.875Z,12.91
2022-11-12T22:25:27.793Z,12.92
2022-11-12T22:28:18.679Z,12.94
2022-11-12T22:31:14.076Z,12.92
2022-11-12T22:34:10.311Z,12.92
2022-11-12T22:37:01.255Z,12.87
2022-11-12T22:39:53.198Z,12.91
2022-11-12T22:42:43.990Z,12.93
2022-11-12T22:45:37.492Z,12.91
2022-11-12T22:48:29.157Z,12.89
2022-11-12T22:51:22.778Z,12.91
2022-11-12T22:54:18.583Z,12.88
2022-11-12T22:57:37.421Z,12.78
2022-11-12T23:00:32.076Z,12.78
2022-11-12T23:03:23.526Z,12.82
2022-11-12T23:06:14.632Z,12.87
2022-11-12T23:09:06.525Z,12.87
2022-11-12T23:11:58.604Z,12.90
2022-11-12T23:14:49.716Z,12.95
2022-11-12T23:17:41.100Z,12.95
2022-11-12T23:20:32.152Z,12.96
2022-11-12T23:23:23.381Z,13.02
2022-11-12T23:26:16.981Z,13.05
2022-11-12T23:29:08.066Z,13.07
2022-11-12T23:32:01.303Z,13.07
2022-11-12T23:34:52.228Z,13.04
2022-11-12T23:38:05.386Z,13.05
2022-11-12T23:40:57.361Z,13.06
2022-11-12T23:43:48.927Z,13.07
2022-11-12T23:46:40.096Z,13.05
2022-11-12T23:49:31.093Z,13.07
2022-11-12T23:52:22.113Z,13.06
2022-11-12T23:55:14.703Z,13.05
2022-11-12T23:58:05.682Z,13.05
